Buoy 51523

sailwx.info

Track history (hours):
 
Tides and Currents Weather Stations Pressure Air Temp Water Temp Dewpoint Dewpoint Depression Visibility Wind Speed Wind Dir Waves Ship Positions

Drifting buoy 51523

Last reported at 2014-Dec-18 19:45 UTC. Time now 2014-Dec-18 20:59 UTC.
Position N 07°52' W 147°57'.

Water temperature 28.1 ° C

Date/timePositionNaut miles runAvg speedWind from/ knotsBaromVisibWave heightAir tempDewpointWater temp
2014-Dec-18 19:45N 07°52' W 147°57'0 0.0 28.1
2014-Dec-18 19:30N 07°52' W 147°57'3 4.3 28.1
2014-Dec-18 18:45N 07°51' W 148°00'1 0.4 28.1
2014-Dec-18 17:00N 07°51' W 148°01'0 0.0 28.1
2014-Dec-18 15:30N 07°51' W 148°01'1 2.2 28.1
2014-Dec-18 15:15N 07°52' W 148°01'0 0.0 28.1
2014-Dec-18 15:00N 07°52' W 148°01'2 1.3 28.1
2014-Dec-18 13:30N 07°51' W 148°03'0 0.0 28.1
2014-Dec-18 13:15N 07°51' W 148°03'1 0.5 28.1
2014-Dec-18 11:45N 07°50' W 148°04'0 0.0 28.1
2014-Dec-18 11:30N 07°50' W 148°04'4 1.1 28.1
2014-Dec-18 08:00N 07°48' W 148°07'0 1.3 28.2
2014-Dec-18 07:45N 07°48' W 148°07'0 0.0 28.2
2014-Dec-18 07:15N 07°48' W 148°07'1 4.3 28.2
2014-Dec-18 07:00N 07°48' W 148°06'3 4.2 28.2
2014-Dec-18 06:15N 07°47' W 148°09'1 0.4 28.2
2014-Dec-18 04:30N 07°47' W 148°10'1 2.7 28.2
2014-Dec-18 04:15N 07°47' W 148°09'1 0.9 28.2
2014-Dec-18 03:30N 07°47' W 148°10'1 3.3 28.2
2014-Dec-18 03:15N 07°47' W 148°10'0 0.0 28.2
2014-Dec-18 02:45N 07°47' W 148°10'2 7.2 28.2
2014-Dec-18 02:30N 07°47' W 148°12'0 0.0 28.2
2014-Dec-18 02:15N 07°47' W 148°12'1 1.0 28.2
2014-Dec-18 00:45N 07°46' W 148°14'0 0.0 28.2
2014-Dec-18 00:30N 07°46' W 148°14'3 1.9 28.2
2014-Dec-17 23:00N 07°45' W 148°16'0 0.2 28.2
2014-Dec-17 20:45N 07°45' W 148°16'1 1.1 28.2
2014-Dec-17 20:00N 07°44' W 148°17'3 3.5 28.2
2014-Dec-17 19:15N 07°42' W 148°19'0 0.0 28.2
2014-Dec-17 19:00N 07°42' W 148°19'0 0.0 28.2
2014-Dec-17 18:30N 07°42' W 148°19'0 0.0 28.2
2014-Dec-17 18:15N 07°42' W 148°19'0 0.2 28.2
2014-Dec-17 16:00N 07°42' W 148°19'1 2.2 28.2
2014-Dec-17 15:45N 07°41' W 148°19'0 0.0 28.2
2014-Dec-17 15:30N 07°41' W 148°19'0 0.0 28.2
2014-Dec-17 15:15N 07°41' W 148°19'1 2.8 28.2
2014-Dec-17 14:45N 07°41' W 148°20'1 0.9 28.2
2014-Dec-17 13:45N 07°41' W 148°21'5 2.9 28.2
2014-Dec-17 12:00N 07°37' W 148°25'0 0.0 28.2
2014-Dec-17 11:45N 07°37' W 148°25'1 0.2 28.2
2014-Dec-17 08:15N 07°37' W 148°24'0 0.0 28.2
2014-Dec-17 08:00N 07°37' W 148°24'1 2.0 28.2
2014-Dec-17 07:30N 07°37' W 148°25'0 0.0 28.2
2014-Dec-17 07:15N 07°37' W 148°25'3 3.6 28.2
2014-Dec-17 06:30N 07°37' W 148°28'2 1.1 28.2
2014-Dec-17 05:00N 07°35' W 148°28'2 6.5 28.2
2014-Dec-17 04:45N 07°37' W 148°28'2 2.2 28.2
2014-Dec-17 04:00N 07°35' W 148°28'0 1.3 28.3
2014-Dec-17 03:45N 07°35' W 148°28'1 1.0 28.3
2014-Dec-17 03:15N 07°35' W 148°28'0 0.0 28.3
2014-Dec-17 02:45N 07°35' W 148°28'2 6.7 28.3
2014-Dec-17 02:30N 07°34' W 148°30'0 0.0 28.3
2014-Dec-17 02:15N 07°34' W 148°30'0 0.0 28.3
2014-Dec-17 01:00N 07°34' W 148°30'1 6.0 28.3
2014-Dec-17 00:45N 07°34' W 148°32'0 0.0 28.3
2014-Dec-16 23:15N 07°34' W 148°32'417.5 28.3
2014-Dec-16 23:00N 07°32' W 148°36'0 0.0 28.3
2014-Dec-16 21:15N 07°32' W 148°36'0 0.0 28.3
2014-Dec-16 21:00N 07°32' W 148°36'0 0.0 28.3
2014-Dec-16 20:30N 07°32' W 148°36'0 0.0 28.2
2014-Dec-16 20:15N 07°32' W 148°36'2 3.3 28.2
2014-Dec-16 19:30N 07°30' W 148°37'0 0.0 28.2
2014-Dec-16 18:45N 07°30' W 148°37'0 0.0 28.2
2014-Dec-16 18:30N 07°30' W 148°37'18 1.0 28.2
2014-Dec-15 23:30N 07°18' W 148°51'314.0 28.3
2014-Dec-15 23:15N 07°15' W 148°53'0 0.0 28.3
2014-Dec-15 20:45N 07°15' W 148°53'1 0.8 28.2
2014-Dec-15 20:00N 07°14' W 148°53'0 0.0 28.2
2014-Dec-15 19:45N 07°14' W 148°53'3 4.0 28.2
2014-Dec-15 19:00N 07°12' W 148°55'1 0.4 28.2
2014-Dec-15 17:00N 07°11' W 148°54'0 0.0 28.2
2014-Dec-15 16:45N 07°11' W 148°54'1 0.6 28.2
2014-Dec-15 15:45N 07°11' W 148°55'310.7 28.2
2014-Dec-15 15:30N 07°09' W 148°56'0 0.0 28.2
2014-Dec-15 15:15N 07°09' W 148°56'0 0.0 28.2
2014-Dec-15 14:00N 07°09' W 148°56'0 0.0 28.2
2014-Dec-15 12:15N 07°09' W 148°56'2 0.7 28.2
2014-Dec-15 08:45N 07°07' W 148°56'0 0.0 28.2
2014-Dec-15 08:15N 07°07' W 148°56'1 5.3 28.2
2014-Dec-15 08:00N 07°06' W 148°57'0 0.0 28.2
2014-Dec-15 07:15N 07°06' W 148°57'0 0.0 28.2
2014-Dec-15 07:00N 07°06' W 148°57'0 0.0 28.2
2014-Dec-15 06:30N 07°06' W 148°57'0 0.0 28.2
2014-Dec-15 06:15N 07°06' W 148°57'1 0.4 28.2
2014-Dec-15 04:45N 07°06' W 148°58'1 2.4 28.3
2014-Dec-15 04:30N 07°06' W 148°58'0 0.0 28.3
2014-Dec-15 04:15N 07°06' W 148°58'1 0.7 28.3
2014-Dec-15 03:00N 07°05' W 148°59'0 0.0 28.3
2014-Dec-15 02:45N 07°05' W 148°59'1 0.6 28.3
2014-Dec-15 01:15N 07°05' W 148°59'0 0.0 28.3
2014-Dec-14 23:45N 07°05' W 148°59'0 0.0 28.3
2014-Dec-14 23:30N 07°05' W 148°59'1 0.3 28.3
2014-Dec-14 21:00N 07°05' W 149°00'1 0.8 28.3
2014-Dec-14 20:15N 07°05' W 149°00'1 2.4 28.2
2014-Dec-14 20:00N 07°05' W 149°00'2 4.8 28.2
2014-Dec-14 19:30N 07°05' W 149°02'0 0.0 28.2
2014-Dec-14 19:15N 07°05' W 149°02'0 0.0 28.2
2014-Dec-14 18:30N 07°05' W 149°02'0 0.0 28.2
2014-Dec-14 17:30N 07°05' W 149°02'1 0.9 28.2
2014-Dec-14 16:00N 07°05' W 149°04'0 0.0 28.2
2014-Dec-14 15:45N 07°05' W 149°04'1 0.4 28.2
2014-Dec-14 14:15N 07°05' W 149°04'1 2.4 28.2
2014-Dec-14 14:00N 07°05' W 149°04'1 0.4 28.2
2014-Dec-14 12:30N 07°05' W 149°04'0 0.0 28.2
2014-Dec-14 12:15N 07°05' W 149°04'2 1.6 28.2
2014-Dec-14 10:45N 07°05' W 149°07'1 0.3 28.2
2014-Dec-14 08:30N 07°05' W 149°07'0 0.0 28.2
2014-Dec-14 08:15N 07°05' W 149°07'0 0.0 28.2
2014-Dec-14 07:45N 07°05' W 149°07'0 0.0 28.2
2014-Dec-14 07:30N 07°05' W 149°07'2 2.5 28.2
2014-Dec-14 06:45N 07°05' W 149°09'1 0.8 28.2
2014-Dec-14 05:00N 07°04' W 149°10'0 0.0 28.2
2014-Dec-14 04:45N 07°04' W 149°10'0 0.0 28.2
2014-Dec-14 03:30N 07°04' W 149°10'1 3.4 28.2
2014-Dec-14 03:15N 07°03' W 149°10'0 0.0 28.2
2014-Dec-14 03:00N 07°03' W 149°10'2 1.3 28.2
2014-Dec-14 01:30N 07°03' W 149°12'0 0.0 28.3
2014-Dec-13 23:45N 07°03' W 149°12'0 0.0 28.3
2014-Dec-13 23:30N 07°03' W 149°12'19 0.8 28.3
2014-Dec-13 00:00N 06°54' W 149°29'0 0.0 28.3
2014-Dec-12 23:45N 06°54' W 149°29'3 0.8 28.3
2014-Dec-12 20:15N 06°52' W 149°28'0 0.0 28.2
2014-Dec-12 20:00N 06°52' W 149°28'0 0.0 28.2
2014-Dec-12 19:15N 06°52' W 149°28'2 9.3 28.2
2014-Dec-12 19:00N 06°50' W 149°30'0 0.0 28.2
2014-Dec-12 18:30N 06°50' W 149°30'0 0.0 28.2
2014-Dec-12 18:15N 06°50' W 149°30'13 0.9 28.2
2014-Dec-12 04:15N 06°38' W 149°34'0 0.0 28.1
2014-Dec-12 04:00N 06°38' W 149°34'2 1.0 28.1
2014-Dec-12 02:00N 06°36' W 149°35'2 7.5 28.1
2014-Dec-12 01:45N 06°35' W 149°35'0 0.0 28.1
2014-Dec-12 00:15N 06°35' W 149°35'4 1.5 28.1
2014-Dec-11 21:15N 06°30' W 149°35'0 0.7 28.1
2014-Dec-11 20:30N 06°30' W 149°35'0 2.0 28.1
2014-Dec-11 20:15N 06°30' W 149°35'1 1.2 28.1
2014-Dec-11 19:30N 06°29' W 149°35'1 1.7 28.1
2014-Dec-11 18:45N 06°29' W 149°36'0 0.0 28.1
2014-Dec-11 17:30N 06°29' W 149°36'2 7.5 28.1
2014-Dec-11 17:15N 06°27' W 149°35'0 0.1 28.1
2014-Dec-11 15:45N 06°27' W 149°35'0 0.5 28.1
2014-Dec-11 15:30N 06°27' W 149°35'0 0.5 28.1
2014-Dec-11 14:45N 06°26' W 149°35'1 0.5 28.1
2014-Dec-11 13:00N 06°26' W 149°36'1 0.9 28.1
2014-Dec-11 11:30N 06°25' W 149°37'310.7 28.1
2014-Dec-11 11:15N 06°22' W 149°38'0 0.2 28.1
2014-Dec-11 08:30N 06°22' W 149°38'1 0.9 28.1
2014-Dec-11 07:45N 06°21' W 149°38'1 1.8 27.8
2014-Dec-11 07:00N 06°20' W 149°39'0 0.0 28.0
2014-Dec-11 06:45N 06°20' W 149°39'2 1.0 28.1
2014-Dec-11 04:45N 06°19' W 149°41'0 0.0 28.2
2014-Dec-11 03:45N 06°19' W 149°41'1 1.4 28.3
2014-Dec-11 03:15N 06°19' W 149°41'1 3.1 28.3
2014-Dec-11 03:00N 06°19' W 149°40'0 0.0 28.3
2014-Dec-11 02:45N 06°19' W 149°40'0 0.0 28.3
2014-Dec-11 02:15N 06°19' W 149°40'1 2.5 28.3
2014-Dec-11 02:00N 06°19' W 149°41'1 0.4 28.3
2014-Dec-11 00:30N 06°18' W 149°41'311.8 28.3
2014-Dec-11 00:15N 06°16' W 149°43'0 0.0 28.3
2014-Dec-10 22:30N 06°16' W 149°43'0 0.0 28.3
2014-Dec-10 20:45N 06°16' W 149°43'1 0.9 28.3
2014-Dec-10 20:00N 06°16' W 149°44'0 0.0 28.3
2014-Dec-10 19:45N 06°16' W 149°44'0 0.0 28.3
2014-Dec-10 19:15N 06°16' W 149°44'311.6 28.3
2014-Dec-10 19:00N 06°15' W 149°46'0 0.0 28.3
2014-Dec-10 18:15N 06°15' W 149°46'0 0.0 28.3
2014-Dec-10 16:15N 06°15' W 149°46'0 0.0 28.3
2014-Dec-10 16:00N 06°15' W 149°46'0 0.0 28.3
2014-Dec-10 15:45N 06°15' W 149°46'1 1.5 28.3
2014-Dec-10 15:00N 06°14' W 149°47'0 0.0 28.4
2014-Dec-10 14:45N 06°14' W 149°47'8 2.4 28.4
2014-Dec-10 11:30N 06°10' W 149°54'0 0.0 28.4
2014-Dec-10 09:00N 06°10' W 149°54'0 0.0 28.5
2014-Dec-10 08:15N 06°10' W 149°54'0 1.1 28.5
2014-Dec-10 08:00N 06°10' W 149°54'3 1.8 28.5
2014-Dec-10 06:30N 06°09' W 149°57'0 0.0 28.5
2014-Dec-10 05:15N 06°09' W 149°57'1 1.1 28.5
2014-Dec-10 04:00N 06°08' W 149°57'1 2.4 28.5
2014-Dec-10 03:45N 06°08' W 149°58'0 0.0 28.5
2014-Dec-10 03:30N 06°08' W 149°58'2 8.7 28.5
2014-Dec-10 03:15N 06°07' W 150°00'0 0.0 28.5
2014-Dec-10 02:30N 06°07' W 150°00'2 6.9 28.5
2014-Dec-10 02:15N 06°08' W 150°02'2 1.3 28.5
2014-Dec-10 00:30N 06°07' W 150°04'0 0.0 28.4
2014-Dec-10 00:15N 06°07' W 150°04'3 2.3 28.4
2014-Dec-09 22:45N 06°07' W 150°08'1 0.5 28.4
2014-Dec-09 20:15N 06°06' W 150°09'3 3.9 28.4
2014-Dec-09 19:30N 06°05' W 150°12'0 0.0 28.4
2014-Dec-09 19:15N 06°05' W 150°12'0 0.0 28.4
2014-Dec-09 18:30N 06°05' W 150°12'0 0.2 28.5
2014-Dec-09 16:45N 06°06' W 150°12'0 1.7 28.4
2014-Dec-09 16:30N 06°06' W 150°11'0 0.0 28.4
2014-Dec-09 16:15N 06°06' W 150°11'1 1.4 28.4
2014-Dec-09 15:15N 06°06' W 150°13'2 6.8 28.5
2014-Dec-09 15:00N 06°06' W 150°14'0 0.0 28.5
2014-Dec-09 14:45N 06°06' W 150°14'0 0.0 28.5
2014-Dec-09 14:30N 06°06' W 150°14'0 0.0 28.5
2014-Dec-09 13:30N 06°06' W 150°14'0 0.0 28.5
2014-Dec-09 13:15N 06°06' W 150°14'2 1.6 28.5
2014-Dec-09 11:45N 06°06' W 150°17'414.1 28.5
2014-Dec-09 11:30N 06°07' W 150°20'1 0.4 28.5
2014-Dec-09 08:30N 06°07' W 150°21'0 0.0 28.4
2014-Dec-09 07:45N 06°07' W 150°21'0 1.4 28.5
2014-Dec-09 07:30N 06°07' W 150°22'0 0.0 28.5
2014-Dec-09 07:00N 06°07' W 150°22'310.0 28.5
2014-Dec-09 06:45N 06°07' W 150°24'1 0.2 28.5
2014-Dec-09 04:15N 06°06' W 150°25'0 1.1 28.5
2014-Dec-09 04:00N 06°06' W 150°25'1 3.8 28.5
2014-Dec-09 03:45N 06°06' W 150°26'2 1.9 28.5
2014-Dec-09 02:30N 06°06' W 150°28'0 0.0 28.5
2014-Dec-09 02:15N 06°06' W 150°28'0 0.0 28.5
2014-Dec-09 00:45N 06°06' W 150°28'2 9.1 28.6
2014-Dec-09 00:30N 06°06' W 150°30'3 1.8 28.6
2014-Dec-08 23:00N 06°07' W 150°33'1 0.5 28.6
2014-Dec-08 20:45N 06°06' W 150°33'1 4.1 28.5
2014-Dec-08 20:30N 06°07' W 150°33'2 2.1 28.5
2014-Dec-08 19:45N 06°06' W 150°34'   28.5
Track history (hours):
 
Tides and Currents Weather Stations Pressure Air Temp Water Temp Dewpoint Dewpoint Depression Visibility Wind Speed Wind Dir Waves Ship Positions

Drifting buoy 51523

Last reported at 2014-Dec-18 19:45 UTC. Time now 2014-Dec-18 20:59 UTC.
Position N 07°52' W 147°57'.

Water temperature 28.1 ° C

Date/timePositionNaut miles runAvg speedWind from/ knotsBaromVisibWave heightAir tempDewpointWater temp
2014-Dec-18 19:45N 07°52' W 147°57'0 0.0 28.1
2014-Dec-18 19:30N 07°52' W 147°57'3 4.3 28.1
2014-Dec-18 18:45N 07°51' W 148°00'1 0.4 28.1
2014-Dec-18 17:00N 07°51' W 148°01'0 0.0 28.1
2014-Dec-18 15:30N 07°51' W 148°01'1 2.2 28.1
2014-Dec-18 15:15N 07°52' W 148°01'0 0.0 28.1
2014-Dec-18 15:00N 07°52' W 148°01'2 1.3 28.1
2014-Dec-18 13:30N 07°51' W 148°03'0 0.0 28.1
2014-Dec-18 13:15N 07°51' W 148°03'1 0.5 28.1
2014-Dec-18 11:45N 07°50' W 148°04'0 0.0 28.1
2014-Dec-18 11:30N 07°50' W 148°04'4 1.1 28.1
2014-Dec-18 08:00N 07°48' W 148°07'0 1.3 28.2
2014-Dec-18 07:45N 07°48' W 148°07'0 0.0 28.2
2014-Dec-18 07:15N 07°48' W 148°07'1 4.3 28.2
2014-Dec-18 07:00N 07°48' W 148°06'3 4.2 28.2
2014-Dec-18 06:15N 07°47' W 148°09'1 0.4 28.2
2014-Dec-18 04:30N 07°47' W 148°10'1 2.7 28.2
2014-Dec-18 04:15N 07°47' W 148°09'1 0.9 28.2
2014-Dec-18 03:30N 07°47' W 148°10'1 3.3 28.2
2014-Dec-18 03:15N 07°47' W 148°10'0 0.0 28.2
2014-Dec-18 02:45N 07°47' W 148°10'2 7.2 28.2
2014-Dec-18 02:30N 07°47' W 148°12'0 0.0 28.2
2014-Dec-18 02:15N 07°47' W 148°12'1 1.0 28.2
2014-Dec-18 00:45N 07°46' W 148°14'0 0.0 28.2
2014-Dec-18 00:30N 07°46' W 148°14'3 1.9 28.2
2014-Dec-17 23:00N 07°45' W 148°16'0 0.2 28.2
2014-Dec-17 20:45N 07°45' W 148°16'1 1.1 28.2
2014-Dec-17 20:00N 07°44' W 148°17'3 3.5 28.2
2014-Dec-17 19:15N 07°42' W 148°19'0 0.0 28.2
2014-Dec-17 19:00N 07°42' W 148°19'0 0.0 28.2
2014-Dec-17 18:30N 07°42' W 148°19'0 0.0 28.2
2014-Dec-17 18:15N 07°42' W 148°19'0 0.2 28.2
2014-Dec-17 16:00N 07°42' W 148°19'1 2.2 28.2
2014-Dec-17 15:45N 07°41' W 148°19'0 0.0 28.2
2014-Dec-17 15:30N 07°41' W 148°19'0 0.0 28.2
2014-Dec-17 15:15N 07°41' W 148°19'1 2.8 28.2
2014-Dec-17 14:45N 07°41' W 148°20'1 0.9 28.2
2014-Dec-17 13:45N 07°41' W 148°21'5 2.9 28.2
2014-Dec-17 12:00N 07°37' W 148°25'0 0.0 28.2
2014-Dec-17 11:45N 07°37' W 148°25'1 0.2 28.2
2014-Dec-17 08:15N 07°37' W 148°24'0 0.0 28.2
2014-Dec-17 08:00N 07°37' W 148°24'1 2.0 28.2
2014-Dec-17 07:30N 07°37' W 148°25'0 0.0 28.2
2014-Dec-17 07:15N 07°37' W 148°25'3 3.6 28.2
2014-Dec-17 06:30N 07°37' W 148°28'2 1.1 28.2
2014-Dec-17 05:00N 07°35' W 148°28'2 6.5 28.2
2014-Dec-17 04:45N 07°37' W 148°28'2 2.2 28.2
2014-Dec-17 04:00N 07°35' W 148°28'0 1.3 28.3
2014-Dec-17 03:45N 07°35' W 148°28'1 1.0 28.3
2014-Dec-17 03:15N 07°35' W 148°28'0 0.0 28.3
2014-Dec-17 02:45N 07°35' W 148°28'2 6.7 28.3
2014-Dec-17 02:30N 07°34' W 148°30'0 0.0 28.3
2014-Dec-17 02:15N 07°34' W 148°30'0 0.0 28.3
2014-Dec-17 01:00N 07°34' W 148°30'1 6.0 28.3
2014-Dec-17 00:45N 07°34' W 148°32'0 0.0 28.3
2014-Dec-16 23:15N 07°34' W 148°32'417.5 28.3
2014-Dec-16 23:00N 07°32' W 148°36'0 0.0 28.3
2014-Dec-16 21:15N 07°32' W 148°36'0 0.0 28.3
2014-Dec-16 21:00N 07°32' W 148°36'0 0.0 28.3
2014-Dec-16 20:30N 07°32' W 148°36'0 0.0 28.2
2014-Dec-16 20:15N 07°32' W 148°36'2 3.3 28.2
2014-Dec-16 19:30N 07°30' W 148°37'0 0.0 28.2
2014-Dec-16 18:45N 07°30' W 148°37'0 0.0 28.2
2014-Dec-16 18:30N 07°30' W 148°37'18 1.0 28.2
2014-Dec-15 23:30N 07°18' W 148°51'314.0 28.3
2014-Dec-15 23:15N 07°15' W 148°53'0 0.0 28.3
2014-Dec-15 20:45N 07°15' W 148°53'1 0.8 28.2
2014-Dec-15 20:00N 07°14' W 148°53'0 0.0 28.2
2014-Dec-15 19:45N 07°14' W 148°53'3 4.0 28.2
2014-Dec-15 19:00N 07°12' W 148°55'1 0.4 28.2
2014-Dec-15 17:00N 07°11' W 148°54'0 0.0 28.2
2014-Dec-15 16:45N 07°11' W 148°54'1 0.6 28.2
2014-Dec-15 15:45N 07°11' W 148°55'310.7 28.2
2014-Dec-15 15:30N 07°09' W 148°56'0 0.0 28.2
2014-Dec-15 15:15N 07°09' W 148°56'0 0.0 28.2
2014-Dec-15 14:00N 07°09' W 148°56'0 0.0 28.2
2014-Dec-15 12:15N 07°09' W 148°56'2 0.7 28.2
2014-Dec-15 08:45N 07°07' W 148°56'0 0.0 28.2
2014-Dec-15 08:15N 07°07' W 148°56'1 5.3 28.2
2014-Dec-15 08:00N 07°06' W 148°57'0 0.0 28.2
2014-Dec-15 07:15N 07°06' W 148°57'0 0.0 28.2
2014-Dec-15 07:00N 07°06' W 148°57'0 0.0 28.2
2014-Dec-15 06:30N 07°06' W 148°57'0 0.0 28.2
2014-Dec-15 06:15N 07°06' W 148°57'1 0.4 28.2
2014-Dec-15 04:45N 07°06' W 148°58'1 2.4 28.3
2014-Dec-15 04:30N 07°06' W 148°58'0 0.0 28.3
2014-Dec-15 04:15N 07°06' W 148°58'1 0.7 28.3
2014-Dec-15 03:00N 07°05' W 148°59'0 0.0 28.3
2014-Dec-15 02:45N 07°05' W 148°59'1 0.6 28.3
2014-Dec-15 01:15N 07°05' W 148°59'0 0.0 28.3
2014-Dec-14 23:45N 07°05' W 148°59'0 0.0 28.3
2014-Dec-14 23:30N 07°05' W 148°59'1 0.3 28.3
2014-Dec-14 21:00N 07°05' W 149°00'1 0.8 28.3
2014-Dec-14 20:15N 07°05' W 149°00'1 2.4 28.2
2014-Dec-14 20:00N 07°05' W 149°00'2 4.8 28.2
2014-Dec-14 19:30N 07°05' W 149°02'0 0.0 28.2
2014-Dec-14 19:15N 07°05' W 149°02'0 0.0 28.2
2014-Dec-14 18:30N 07°05' W 149°02'0 0.0 28.2
2014-Dec-14 17:30N 07°05' W 149°02'1 0.9 28.2
2014-Dec-14 16:00N 07°05' W 149°04'0 0.0 28.2
2014-Dec-14 15:45N 07°05' W 149°04'1 0.4 28.2
2014-Dec-14 14:15N 07°05' W 149°04'1 2.4 28.2
2014-Dec-14 14:00N 07°05' W 149°04'1 0.4 28.2
2014-Dec-14 12:30N 07°05' W 149°04'0 0.0 28.2
2014-Dec-14 12:15N 07°05' W 149°04'2 1.6 28.2
2014-Dec-14 10:45N 07°05' W 149°07'1 0.3 28.2
2014-Dec-14 08:30N 07°05' W 149°07'0 0.0 28.2
2014-Dec-14 08:15N 07°05' W 149°07'0 0.0 28.2
2014-Dec-14 07:45N 07°05' W 149°07'0 0.0 28.2
2014-Dec-14 07:30N 07°05' W 149°07'2 2.5 28.2
2014-Dec-14 06:45N 07°05' W 149°09'1 0.8 28.2
2014-Dec-14 05:00N 07°04' W 149°10'0 0.0 28.2
2014-Dec-14 04:45N 07°04' W 149°10'0 0.0 28.2
2014-Dec-14 03:30N 07°04' W 149°10'1 3.4 28.2
2014-Dec-14 03:15N 07°03' W 149°10'0 0.0 28.2
2014-Dec-14 03:00N 07°03' W 149°10'2 1.3 28.2
2014-Dec-14 01:30N 07°03' W 149°12'0 0.0 28.3
2014-Dec-13 23:45N 07°03' W 149°12'0 0.0 28.3
2014-Dec-13 23:30N 07°03' W 149°12'19 0.8 28.3
2014-Dec-13 00:00N 06°54' W 149°29'0 0.0 28.3
2014-Dec-12 23:45N 06°54' W 149°29'3 0.8 28.3
2014-Dec-12 20:15N 06°52' W 149°28'0 0.0 28.2
2014-Dec-12 20:00N 06°52' W 149°28'0 0.0 28.2
2014-Dec-12 19:15N 06°52' W 149°28'2 9.3 28.2
2014-Dec-12 19:00N 06°50' W 149°30'0 0.0 28.2
2014-Dec-12 18:30N 06°50' W 149°30'0 0.0 28.2
2014-Dec-12 18:15N 06°50' W 149°30'13 0.9 28.2
2014-Dec-12 04:15N 06°38' W 149°34'0 0.0 28.1
2014-Dec-12 04:00N 06°38' W 149°34'2 1.0 28.1
2014-Dec-12 02:00N 06°36' W 149°35'2 7.5 28.1
2014-Dec-12 01:45N 06°35' W 149°35'0 0.0 28.1
2014-Dec-12 00:15N 06°35' W 149°35'4 1.5 28.1
2014-Dec-11 21:15N 06°30' W 149°35'0 0.7 28.1
2014-Dec-11 20:30N 06°30' W 149°35'0 2.0 28.1
2014-Dec-11 20:15N 06°30' W 149°35'1 1.2 28.1
2014-Dec-11 19:30N 06°29' W 149°35'1 1.7 28.1
2014-Dec-11 18:45N 06°29' W 149°36'0 0.0 28.1
2014-Dec-11 17:30N 06°29' W 149°36'2 7.5 28.1
2014-Dec-11 17:15N 06°27' W 149°35'0 0.1 28.1
2014-Dec-11 15:45N 06°27' W 149°35'0 0.5 28.1
2014-Dec-11 15:30N 06°27' W 149°35'0 0.5 28.1
2014-Dec-11 14:45N 06°26' W 149°35'1 0.5 28.1
2014-Dec-11 13:00N 06°26' W 149°36'1 0.9 28.1
2014-Dec-11 11:30N 06°25' W 149°37'310.7 28.1
2014-Dec-11 11:15N 06°22' W 149°38'0 0.2 28.1
2014-Dec-11 08:30N 06°22' W 149°38'1 0.9 28.1
2014-Dec-11 07:45N 06°21' W 149°38'1 1.8 27.8
2014-Dec-11 07:00N 06°20' W 149°39'0 0.0 28.0
2014-Dec-11 06:45N 06°20' W 149°39'2 1.0 28.1
2014-Dec-11 04:45N 06°19' W 149°41'0 0.0 28.2
2014-Dec-11 03:45N 06°19' W 149°41'1 1.4 28.3
2014-Dec-11 03:15N 06°19' W 149°41'1 3.1 28.3
2014-Dec-11 03:00N 06°19' W 149°40'0 0.0 28.3
2014-Dec-11 02:45N 06°19' W 149°40'0 0.0 28.3
2014-Dec-11 02:15N 06°19' W 149°40'1 2.5 28.3
2014-Dec-11 02:00N 06°19' W 149°41'1 0.4 28.3
2014-Dec-11 00:30N 06°18' W 149°41'311.8 28.3
2014-Dec-11 00:15N 06°16' W 149°43'0 0.0 28.3
2014-Dec-10 22:30N 06°16' W 149°43'0 0.0 28.3
2014-Dec-10 20:45N 06°16' W 149°43'1 0.9 28.3
2014-Dec-10 20:00N 06°16' W 149°44'0 0.0 28.3
2014-Dec-10 19:45N 06°16' W 149°44'0 0.0 28.3
2014-Dec-10 19:15N 06°16' W 149°44'311.6 28.3
2014-Dec-10 19:00N 06°15' W 149°46'0 0.0 28.3
2014-Dec-10 18:15N 06°15' W 149°46'0 0.0 28.3
2014-Dec-10 16:15N 06°15' W 149°46'0 0.0 28.3
2014-Dec-10 16:00N 06°15' W 149°46'0 0.0 28.3
2014-Dec-10 15:45N 06°15' W 149°46'1 1.5 28.3
2014-Dec-10 15:00N 06°14' W 149°47'0 0.0 28.4
2014-Dec-10 14:45N 06°14' W 149°47'8 2.4 28.4
2014-Dec-10 11:30N 06°10' W 149°54'0 0.0 28.4
2014-Dec-10 09:00N 06°10' W 149°54'0 0.0 28.5
2014-Dec-10 08:15N 06°10' W 149°54'0 1.1 28.5
2014-Dec-10 08:00N 06°10' W 149°54'3 1.8 28.5
2014-Dec-10 06:30N 06°09' W 149°57'0 0.0 28.5
2014-Dec-10 05:15N 06°09' W 149°57'1 1.1 28.5
2014-Dec-10 04:00N 06°08' W 149°57'1 2.4 28.5
2014-Dec-10 03:45N 06°08' W 149°58'0 0.0 28.5
2014-Dec-10 03:30N 06°08' W 149°58'2 8.7 28.5
2014-Dec-10 03:15N 06°07' W 150°00'0 0.0 28.5
2014-Dec-10 02:30N 06°07' W 150°00'2 6.9 28.5
2014-Dec-10 02:15N 06°08' W 150°02'2 1.3 28.5
2014-Dec-10 00:30N 06°07' W 150°04'0 0.0 28.4
2014-Dec-10 00:15N 06°07' W 150°04'3 2.3 28.4
2014-Dec-09 22:45N 06°07' W 150°08'1 0.5 28.4
2014-Dec-09 20:15N 06°06' W 150°09'3 3.9 28.4
2014-Dec-09 19:30N 06°05' W 150°12'0 0.0 28.4
2014-Dec-09 19:15N 06°05' W 150°12'0 0.0 28.4
2014-Dec-09 18:30N 06°05' W 150°12'0 0.2 28.5
2014-Dec-09 16:45N 06°06' W 150°12'0 1.7 28.4
2014-Dec-09 16:30N 06°06' W 150°11'0 0.0 28.4
2014-Dec-09 16:15N 06°06' W 150°11'1 1.4 28.4
2014-Dec-09 15:15N 06°06' W 150°13'2 6.8 28.5
2014-Dec-09 15:00N 06°06' W 150°14'0 0.0 28.5
2014-Dec-09 14:45N 06°06' W 150°14'0 0.0 28.5
2014-Dec-09 14:30N 06°06' W 150°14'0 0.0 28.5
2014-Dec-09 13:30N 06°06' W 150°14'0 0.0 28.5
2014-Dec-09 13:15N 06°06' W 150°14'2 1.6 28.5
2014-Dec-09 11:45N 06°06' W 150°17'414.1 28.5
2014-Dec-09 11:30N 06°07' W 150°20'1 0.4 28.5
2014-Dec-09 08:30N 06°07' W 150°21'0 0.0 28.4
2014-Dec-09 07:45N 06°07' W 150°21'0 1.4 28.5
2014-Dec-09 07:30N 06°07' W 150°22'0 0.0 28.5
2014-Dec-09 07:00N 06°07' W 150°22'310.0 28.5
2014-Dec-09 06:45N 06°07' W 150°24'1 0.2 28.5
2014-Dec-09 04:15N 06°06' W 150°25'0 1.1 28.5
2014-Dec-09 04:00N 06°06' W 150°25'1 3.8 28.5
2014-Dec-09 03:45N 06°06' W 150°26'2 1.9 28.5
2014-Dec-09 02:30N 06°06' W 150°28'0 0.0 28.5
2014-Dec-09 02:15N 06°06' W 150°28'0 0.0 28.5
2014-Dec-09 00:45N 06°06' W 150°28'2 9.1 28.6
2014-Dec-09 00:30N 06°06' W 150°30'3 1.8 28.6
2014-Dec-08 23:00N 06°07' W 150°33'1 0.5 28.6
2014-Dec-08 20:45N 06°06' W 150°33'1 4.1 28.5
2014-Dec-08 20:30N 06°07' W 150°33'2 2.1 28.5
2014-Dec-08 19:45N 06°06' W 150°34'   28.5

Dump ship's entire track history